Terminal Aerodrome Forecast
Issued by NWS

Home | Current Version | Previous Version | Graphics & Text | Print | Product List | Glossary On
Versions: 1 2 3 4 5 6 7 8 9 10 11 12 13 14 15 16
000
FTUS42 KMHX 172339
TAFOAJ
TAF
KOAJ 172339Z 1800/1824 21005KT P6SM OVC250
     FM180800 23008KT P6SM BKN060
     FM181000 23008KT P6SM BKN027
     FM181100 23008KT P6SM -SHRA BKN017
     FM181700 27011KT P6SM BKN010
     FM181900 28010KT P6SM BKN090
     FM182000 30009KT P6SM SCT250
      AMD LTD TO CLD VIS AND WIND=

USA.gov is the U.S. government's official web portal to all federal, state and local government web resources and services.